createdAt,value
2018-07-28T00:01:03.059Z,99.90
2018-07-28T00:03:43.696Z,99.90
2018-07-28T00:06:25.302Z,99.90
2018-07-28T00:09:06.758Z,99.90
2018-07-28T00:11:47.423Z,99.90
2018-07-28T00:14:29.013Z,99.90
2018-07-28T00:17:10.647Z,99.90
2018-07-28T00:19:52.136Z,99.90
2018-07-28T00:22:33.757Z,99.90
2018-07-28T00:25:15.384Z,99.90
2018-07-28T00:27:56.253Z,99.90
2018-07-28T00:30:37.785Z,99.90
2018-07-28T00:33:19.345Z,99.90
2018-07-28T00:35:59.966Z,99.90
2018-07-28T00:38:41.664Z,99.90
2018-07-28T00:41:22.339Z,99.90
2018-07-28T00:44:04.275Z,99.90
2018-07-28T00:46:45.841Z,99.90
2018-07-28T00:49:26.591Z,99.90
2018-07-28T00:52:08.122Z,99.90
2018-07-28T00:54:49.085Z,99.90
2018-07-28T00:57:29.671Z,99.90
2018-07-28T01:00:10.419Z,99.90
2018-07-28T01:02:51.043Z,99.90
2018-07-28T01:05:32.649Z,99.90
2018-07-28T01:08:14.181Z,99.90
2018-07-28T01:10:54.761Z,99.90
2018-07-28T01:13:35.434Z,99.90
2018-07-28T01:16:16.339Z,99.90
2018-07-28T01:18:57.069Z,99.90
2018-07-28T01:21:39.643Z,99.90
2018-07-28T01:24:20.526Z,99.90
2018-07-28T01:27:02.343Z,99.90
2018-07-28T01:29:44.272Z,99.90
2018-07-28T01:32:25.271Z,99.90
2018-07-28T01:35:06.198Z,99.90
2018-07-28T01:37:47.649Z,99.90
2018-07-28T01:40:29.160Z,99.90
2018-07-28T01:43:10.037Z,99.90
2018-07-28T01:45:51.591Z,99.90
2018-07-28T01:48:33.286Z,99.90
2018-07-28T01:51:13.908Z,99.90
2018-07-28T01:53:54.953Z,99.90
2018-07-28T01:56:37.716Z,99.90
2018-07-28T01:59:19.263Z,99.90
2018-07-28T02:02:00.026Z,99.90
2018-07-28T02:04:40.757Z,99.90
2018-07-28T02:07:22.335Z,99.90
2018-07-28T02:10:04.472Z,99.90
2018-07-28T02:12:45.697Z,99.90
2018-07-28T02:15:26.469Z,99.90
2018-07-28T02:18:08.209Z,99.90
2018-07-28T02:20:49.898Z,99.90
2018-07-28T02:23:30.726Z,99.90
2018-07-28T02:26:12.276Z,99.90
2018-07-28T02:28:53.087Z,99.90
2018-07-28T02:31:34.717Z,99.90
2018-07-28T02:34:15.533Z,99.90
2018-07-28T02:36:57.069Z,99.90
2018-07-28T02:39:38.796Z,99.90
2018-07-28T02:42:20.334Z,99.90
2018-07-28T02:45:02.957Z,99.90
2018-07-28T02:47:45.087Z,99.90
2018-07-28T02:50:26.059Z,99.90
2018-07-28T02:53:07.801Z,99.90
2018-07-28T02:55:50.521Z,99.90
2018-07-28T02:58:32.181Z,99.90
2018-07-28T03:01:13.085Z,99.90
2018-07-28T03:03:54.661Z,99.90
2018-07-28T03:06:36.308Z,99.90
2018-07-28T03:09:17.580Z,99.90
2018-07-28T03:11:58.754Z,99.90
2018-07-28T03:14:41.848Z,99.90
2018-07-28T03:17:23.015Z,99.90
2018-07-28T03:20:03.769Z,99.90
2018-07-28T03:22:45.519Z,99.90
2018-07-28T03:25:27.245Z,99.90
2018-07-28T03:28:08.832Z,99.90
2018-07-28T03:30:51.644Z,99.90
2018-07-28T03:33:33.300Z,99.90
2018-07-28T03:36:15.365Z,99.90
2018-07-28T03:38:57.884Z,99.90
2018-07-28T03:41:39.315Z,99.90
2018-07-28T03:44:19.962Z,99.90
2018-07-28T03:47:01.462Z,99.90
2018-07-28T03:49:43.101Z,99.90
2018-07-28T03:52:24.589Z,99.90
2018-07-28T03:55:05.454Z,99.90
2018-07-28T03:57:47.102Z,99.90
2018-07-28T04:00:27.956Z,99.90
2018-07-28T04:03:08.706Z,99.90
2018-07-28T04:05:50.395Z,99.90
2018-07-28T04:08:32.005Z,99.90
2018-07-28T04:11:13.465Z,99.90
2018-07-28T04:13:55.057Z,99.90
2018-07-28T04:16:36.660Z,99.90
2018-07-28T04:19:18.337Z,99.90
2018-07-28T04:21:59.935Z,99.90
2018-07-28T04:27:23.289Z,99.90
2018-07-28T04:30:04.858Z,99.90
2018-07-28T04:32:45.629Z,99.90
2018-07-28T04:35:27.280Z,99.90
2018-07-28T04:38:08.753Z,99.90
2018-07-28T04:40:49.517Z,99.90
2018-07-28T04:43:31.288Z,99.90
2018-07-28T04:46:12.889Z,99.90
2018-07-28T04:48:54.490Z,99.90
2018-07-28T04:51:36.904Z,99.90
2018-07-28T04:54:18.029Z,99.90
2018-07-28T04:56:59.534Z,99.90
2018-07-28T04:59:41.423Z,99.90
2018-07-28T05:02:22.755Z,99.90
2018-07-28T05:05:23.412Z,99.90
2018-07-28T05:08:05.178Z,99.90
2018-07-28T05:10:46.860Z,99.90
2018-07-28T05:13:28.426Z,99.90
2018-07-28T05:16:09.342Z,99.90
2018-07-28T05:18:50.790Z,99.90
2018-07-28T05:21:31.497Z,99.90
2018-07-28T05:24:12.159Z,99.90
2018-07-28T05:26:54.859Z,99.90
2018-07-28T05:29:36.365Z,99.90
2018-07-28T05:32:19.816Z,99.90
2018-07-28T05:35:00.797Z,99.90
2018-07-28T05:37:42.091Z,99.90
2018-07-28T05:40:23.804Z,99.90
2018-07-28T05:43:05.531Z,99.90
2018-07-28T05:45:48.945Z,99.90
2018-07-28T05:48:29.799Z,99.90
2018-07-28T05:51:11.872Z,99.90
2018-07-28T05:53:52.961Z,99.90
2018-07-28T05:56:34.536Z,99.90
2018-07-28T05:59:16.063Z,99.90
2018-07-28T06:01:57.670Z,99.90
2018-07-28T06:04:38.335Z,99.90
2018-07-28T06:07:20.521Z,99.90
2018-07-28T06:10:01.632Z,99.90
2018-07-28T06:12:42.649Z,99.90
2018-07-28T06:15:23.903Z,99.90
2018-07-28T06:18:06.080Z,99.90
2018-07-28T06:20:47.431Z,99.90
2018-07-28T06:23:28.964Z,99.90
2018-07-28T06:26:10.678Z,99.90
2018-07-28T06:28:52.901Z,99.90
2018-07-28T06:31:34.114Z,99.90
2018-07-28T06:34:15.972Z,99.90
2018-07-28T06:36:57.464Z,99.90
2018-07-28T06:39:39.125Z,99.90
2018-07-28T06:42:20.807Z,99.90
2018-07-28T06:45:02.284Z,99.90
2018-07-28T06:47:43.077Z,99.90
2018-07-28T06:50:24.628Z,99.90
2018-07-28T06:53:06.234Z,99.90
2018-07-28T06:55:47.791Z,99.90
2018-07-28T06:58:28.662Z,99.90
2018-07-28T07:01:09.360Z,99.90
2018-07-28T07:03:50.891Z,99.90
2018-07-28T07:06:32.562Z,99.90
2018-07-28T07:09:14.278Z,99.90
2018-07-28T07:11:55.800Z,99.90
2018-07-28T07:14:37.316Z,99.90
2018-07-28T07:17:18.824Z,99.90
2018-07-28T07:20:00.466Z,99.90
2018-07-28T07:22:42.090Z,99.90
2018-07-28T07:25:22.845Z,99.60
2018-07-28T07:28:03.780Z,99.10
2018-07-28T07:30:45.741Z,98.40
2018-07-28T07:33:27.188Z,98.30
2018-07-28T07:36:08.825Z,98.90
2018-07-28T07:38:50.453Z,98.90
2018-07-28T07:41:32.737Z,98.90
2018-07-28T07:44:13.853Z,98.00
2018-07-28T07:46:56.280Z,98.20
2018-07-28T07:49:38.006Z,98.50
2018-07-28T07:52:18.696Z,98.80
2018-07-28T07:55:00.276Z,98.00
2018-07-28T07:57:41.151Z,97.90
2018-07-28T08:00:22.005Z,98.00
2018-07-28T08:03:03.624Z,98.10
2018-07-28T08:05:45.148Z,97.70
2018-07-28T08:08:28.006Z,96.90
2018-07-28T08:11:09.410Z,96.80
2018-07-28T08:13:51.636Z,96.50
2018-07-28T08:16:32.647Z,96.60
2018-07-28T08:19:14.277Z,95.50
2018-07-28T08:21:55.748Z,96.30
2018-07-28T08:24:36.499Z,96.70
2018-07-28T08:27:17.251Z,96.30
2018-07-28T08:29:58.011Z,96.30
2018-07-28T08:32:39.593Z,96.30
2018-07-28T08:35:21.290Z,95.20
2018-07-28T08:38:02.891Z,95.40
2018-07-28T08:40:44.544Z,95.70
2018-07-28T08:43:25.173Z,95.40
2018-07-28T08:46:06.881Z,95.50
2018-07-28T08:48:48.514Z,95.40
2018-07-28T08:51:30.060Z,95.60
2018-07-28T08:54:11.943Z,95.40
2018-07-28T08:56:53.276Z,95.20
2018-07-28T08:59:35.722Z,94.50
2018-07-28T09:02:16.654Z,94.50
2018-07-28T09:04:57.489Z,94.40
2018-07-28T09:07:38.960Z,94.80
2018-07-28T09:10:19.535Z,94.70
2018-07-28T09:13:01.049Z,94.30
2018-07-28T09:15:42.680Z,94.30
2018-07-28T09:18:24.271Z,93.80
2018-07-28T09:21:05.049Z,93.60
2018-07-28T09:23:45.734Z,93.80
2018-07-28T09:26:27.323Z,93.40
2018-07-28T09:29:08.863Z,93.10
2018-07-28T09:31:49.591Z,92.80
2018-07-28T09:34:31.317Z,92.80
2018-07-28T09:37:12.025Z,93.10
2018-07-28T09:39:52.668Z,92.80
2018-07-28T09:42:33.309Z,92.50
2018-07-28T09:45:15.023Z,92.30
2018-07-28T09:47:56.578Z,92.30
2018-07-28T09:50:38.235Z,92.20
2018-07-28T09:53:19.053Z,91.80
2018-07-28T09:55:59.784Z,91.70
2018-07-28T09:58:41.328Z,91.50
2018-07-28T10:01:23.750Z,91.40
2018-07-28T10:04:04.585Z,91.30
2018-07-28T10:06:46.193Z,91.60
2018-07-28T10:09:27.786Z,91.20
2018-07-28T10:12:09.538Z,91.60
2018-07-28T10:14:51.312Z,92.00
2018-07-28T10:17:33.039Z,92.40
2018-07-28T10:20:14.484Z,92.70
2018-07-28T10:22:56.154Z,92.80
2018-07-28T10:25:37.688Z,92.70
2018-07-28T10:28:19.420Z,92.50
2018-07-28T10:31:00.845Z,92.50
2018-07-28T10:33:42.408Z,92.60
2018-07-28T10:39:06.005Z,92.70
2018-07-28T10:41:47.489Z,92.30
2018-07-28T10:44:28.432Z,91.70
2018-07-28T10:47:09.985Z,91.30
2018-07-28T10:49:51.847Z,91.00
2018-07-28T10:52:33.446Z,90.50
2018-07-28T10:55:14.207Z,90.20
2018-07-28T10:57:55.849Z,90.10
2018-07-28T11:00:37.504Z,90.50
2018-07-28T11:03:19.112Z,90.80
2018-07-28T11:06:00.485Z,91.00
2018-07-28T11:08:41.309Z,90.80
2018-07-28T11:11:22.996Z,91.20
2018-07-28T11:14:04.772Z,90.90
2018-07-28T11:16:46.367Z,90.80
2018-07-28T11:19:27.477Z,91.00
2018-07-28T11:22:09.310Z,90.80
2018-07-28T11:24:50.473Z,90.70
2018-07-28T11:27:31.395Z,90.20
2018-07-28T11:30:13.057Z,89.40
2018-07-28T11:32:54.696Z,89.60
2018-07-28T11:35:36.306Z,89.40
2018-07-28T11:38:17.952Z,90.00
2018-07-28T11:40:59.641Z,89.80
2018-07-28T11:43:40.528Z,89.10
2018-07-28T11:46:22.284Z,88.60
2018-07-28T11:49:03.721Z,88.10
2018-07-28T11:51:44.546Z,88.70
2018-07-28T11:54:26.289Z,86.70
2018-07-28T11:57:08.140Z,86.60
2018-07-28T11:59:49.575Z,86.70
2018-07-28T12:02:30.398Z,86.20
2018-07-28T12:05:11.264Z,86.00
2018-07-28T12:07:52.976Z,86.80
2018-07-28T12:10:33.798Z,89.70
2018-07-28T12:13:15.390Z,89.80
2018-07-28T12:15:56.844Z,89.50
2018-07-28T12:18:38.655Z,90.40
2018-07-28T12:21:20.152Z,90.60
2018-07-28T12:24:01.856Z,90.50
2018-07-28T12:26:43.402Z,90.50
2018-07-28T12:29:24.986Z,90.90
2018-07-28T12:32:06.587Z,91.20
2018-07-28T12:34:48.191Z,92.10
2018-07-28T12:37:29.023Z,92.70
2018-07-28T12:40:12.019Z,93.20
2018-07-28T12:42:53.575Z,92.90
2018-07-28T12:45:35.057Z,93.20
2018-07-28T12:48:16.623Z,93.70
2018-07-28T12:50:58.318Z,93.30
2018-07-28T12:53:39.810Z,93.00
2018-07-28T12:56:20.549Z,92.40
2018-07-28T12:59:02.089Z,91.90
2018-07-28T13:01:43.686Z,91.80
2018-07-28T13:04:26.244Z,91.50
2018-07-28T13:07:07.031Z,90.60
2018-07-28T13:12:29.536Z,90.60
2018-07-28T13:15:10.803Z,90.50
2018-07-28T13:17:52.664Z,90.10
2018-07-28T13:20:34.032Z,89.20
2018-07-28T13:23:16.411Z,90.40
2018-07-28T13:25:57.952Z,90.30
2018-07-28T13:31:21.348Z,90.80
2018-07-28T13:34:02.932Z,89.90
2018-07-28T13:36:44.409Z,90.00
2018-07-28T13:42:07.713Z,88.70
2018-07-28T13:44:49.314Z,89.20
2018-07-28T13:47:30.920Z,88.50
2018-07-28T13:50:12.648Z,88.40
2018-07-28T13:52:54.201Z,87.70
2018-07-28T13:55:34.939Z,87.10
2018-07-28T13:58:17.326Z,87.40
2018-07-28T14:00:58.587Z,87.90
2018-07-28T14:03:40.696Z,88.20
2018-07-28T14:06:22.798Z,88.40
2018-07-28T14:09:03.877Z,88.50
2018-07-28T14:11:45.417Z,87.80
2018-07-28T14:14:26.854Z,89.20
2018-07-28T14:17:08.629Z,89.80
2018-07-28T14:19:49.875Z,90.10
2018-07-28T14:22:30.895Z,90.60
2018-07-28T14:25:12.303Z,90.20
2018-07-28T14:27:54.041Z,90.30
2018-07-28T14:30:35.910Z,90.70
2018-07-28T14:33:18.439Z,90.50
2018-07-28T14:36:00.092Z,91.10
2018-07-28T14:38:41.544Z,92.10
2018-07-28T14:41:23.298Z,92.50
2018-07-28T14:44:05.021Z,92.40
2018-07-28T14:46:46.611Z,91.90
2018-07-28T14:49:28.275Z,92.10
2018-07-28T14:52:09.835Z,92.50
2018-07-28T14:54:50.947Z,92.40
2018-07-28T14:57:32.565Z,92.90
2018-07-28T15:00:14.127Z,93.00
2018-07-28T15:02:55.829Z,92.80
2018-07-28T15:05:37.905Z,92.10
2018-07-28T15:08:19.113Z,91.70
2018-07-28T15:10:59.819Z,91.70
2018-07-28T15:13:41.656Z,92.20
2018-07-28T15:16:23.065Z,92.20
2018-07-28T15:19:04.887Z,92.00
2018-07-28T15:21:46.469Z,92.20
2018-07-28T15:24:27.884Z,92.10
2018-07-28T15:27:09.446Z,92.40
2018-07-28T15:32:33.040Z,92.40
2018-07-28T15:35:14.007Z,93.00
2018-07-28T15:37:55.753Z,92.80
2018-07-28T15:40:37.331Z,93.40
2018-07-28T15:43:18.995Z,93.90
2018-07-28T15:46:00.317Z,93.80
2018-07-28T15:48:41.494Z,93.70
2018-07-28T15:51:23.009Z,93.40
2018-07-28T15:54:04.624Z,93.60
2018-07-28T15:56:46.302Z,93.60
2018-07-28T15:59:27.918Z,93.70
2018-07-28T16:02:09.737Z,93.40
2018-07-28T16:04:51.523Z,93.80
2018-07-28T16:07:33.420Z,93.50
2018-07-28T16:10:15.311Z,94.10
2018-07-28T16:12:56.686Z,94.30
2018-07-28T16:15:38.489Z,93.80
2018-07-28T16:55:45.947Z,95.00
2018-07-28T16:58:27.620Z,95.00
2018-07-28T17:01:09.172Z,94.60
2018-07-28T17:12:48.462Z,94.90
2018-07-28T17:15:31.125Z,94.50
2018-07-28T17:18:12.814Z,94.70
2018-07-28T17:20:54.528Z,94.80
2018-07-28T17:48:54.595Z,96.70
2018-07-28T17:51:36.595Z,96.70
2018-07-28T17:54:28.639Z,97.10
2018-07-28T17:57:09.682Z,97.50
2018-07-28T17:59:51.197Z,97.90
2018-07-28T18:02:32.522Z,97.80
2018-07-28T18:05:13.423Z,97.80
2018-07-28T18:07:55.354Z,97.80
2018-07-28T18:10:36.651Z,98.00
2018-07-28T18:16:08.191Z,98.50
2018-07-28T18:18:49.786Z,98.50
2018-07-28T18:21:31.733Z,99.00
2018-07-28T18:24:12.990Z,98.90
2018-07-28T18:26:54.624Z,99.10
2018-07-28T18:29:36.431Z,99.40
2018-07-28T18:32:17.933Z,99.60
2018-07-28T18:34:59.672Z,99.80
2018-07-28T18:37:42.017Z,99.30
2018-07-28T18:40:23.511Z,99.40
2018-07-28T18:45:46.790Z,99.80
2018-07-28T18:48:28.413Z,99.90
2018-07-28T18:51:10.912Z,99.90
2018-07-28T18:53:52.595Z,99.90
2018-07-28T18:56:34.618Z,99.90
2018-07-28T18:59:16.215Z,99.90
2018-07-28T19:01:57.551Z,99.90
2018-07-28T19:04:39.333Z,99.90
2018-07-28T19:07:21.013Z,99.90
2018-07-28T19:10:02.599Z,99.90
2018-07-28T19:12:49.557Z,99.90
2018-07-28T19:15:30.958Z,99.90
2018-07-28T19:18:17.851Z,99.90
2018-07-28T19:20:59.572Z,99.90
2018-07-28T19:24:15.892Z,99.90
2018-07-28T19:26:57.318Z,99.90
2018-07-28T19:29:41.528Z,99.90
2018-07-28T19:35:04.330Z,99.90
2018-07-28T19:37:45.885Z,99.90
2018-07-28T19:40:27.568Z,99.90
2018-07-28T19:43:09.051Z,99.90
2018-07-28T19:45:50.746Z,99.90
2018-07-28T19:48:32.426Z,99.90
2018-07-28T19:51:15.133Z,99.90
2018-07-28T19:53:57.227Z,99.90
2018-07-28T19:56:39.047Z,99.90
2018-07-28T19:59:20.753Z,99.90
2018-07-28T20:02:01.855Z,99.90
2018-07-28T20:04:43.345Z,99.90
2018-07-28T20:07:25.037Z,99.90
2018-07-28T20:10:07.464Z,99.90
2018-07-28T20:12:48.476Z,99.90
2018-07-28T20:15:31.172Z,99.90
2018-07-28T20:18:15.248Z,99.90
2018-07-28T20:21:04.135Z,99.90
2018-07-28T20:23:49.179Z,99.90
2018-07-28T20:26:31.419Z,99.90
2018-07-28T20:29:12.802Z,99.90
2018-07-28T20:31:55.098Z,99.90
2018-07-28T20:34:35.872Z,99.90
2018-07-28T20:37:17.794Z,99.90
2018-07-28T20:39:59.055Z,99.90
2018-07-28T20:42:41.703Z,99.90
2018-07-28T20:45:22.490Z,99.90
2018-07-28T20:48:03.789Z,99.90
2018-07-28T20:50:45.749Z,99.90
2018-07-28T20:53:26.713Z,99.90
2018-07-28T20:56:09.930Z,99.90
2018-07-28T20:58:50.989Z,99.90
2018-07-28T21:01:32.687Z,99.90
2018-07-28T21:04:16.007Z,99.90
2018-07-28T21:07:00.903Z,99.90
2018-07-28T21:09:42.606Z,99.90
2018-07-28T21:12:24.884Z,99.90
2018-07-28T21:15:12.390Z,99.90
2018-07-28T21:17:55.064Z,99.90
2018-07-28T21:20:36.661Z,99.90
2018-07-28T21:23:19.320Z,99.90
2018-07-28T21:26:01.021Z,99.90
2018-07-28T21:28:42.636Z,99.90
2018-07-28T21:31:24.300Z,99.90
2018-07-28T21:34:06.385Z,99.90
2018-07-28T21:36:47.662Z,99.90
2018-07-28T21:39:29.180Z,99.90
2018-07-28T21:42:09.952Z,99.90
2018-07-28T21:44:51.613Z,99.90
2018-07-28T21:47:32.308Z,99.90
2018-07-28T21:50:13.912Z,99.90
2018-07-28T21:52:55.560Z,99.90
2018-07-28T21:55:37.068Z,99.90
2018-07-28T21:58:18.552Z,99.90
2018-07-28T22:01:03.559Z,99.90
2018-07-28T22:03:44.875Z,99.90
2018-07-28T22:06:26.123Z,99.90
2018-07-28T22:09:08.557Z,99.90
2018-07-28T22:11:49.827Z,99.90
2018-07-28T22:14:31.444Z,99.90
2018-07-28T22:17:12.498Z,99.90
2018-07-28T22:19:54.241Z,99.90
2018-07-28T22:22:36.698Z,99.90
2018-07-28T22:25:18.221Z,99.90
2018-07-28T22:27:59.592Z,99.90
2018-07-28T22:30:41.386Z,99.90
2018-07-28T22:33:23.254Z,99.90
2018-07-28T22:36:04.756Z,99.90
2018-07-28T22:38:45.519Z,99.90
2018-07-28T22:41:27.141Z,99.90
2018-07-28T22:44:08.844Z,99.90
2018-07-28T22:46:50.545Z,99.90
2018-07-28T22:49:32.184Z,99.90
2018-07-28T22:52:13.857Z,99.90
2018-07-28T22:54:55.444Z,99.90
2018-07-28T22:57:37.040Z,99.90
2018-07-28T23:00:18.633Z,99.90
2018-07-28T23:03:00.441Z,99.90
2018-07-28T23:05:42.083Z,99.90
2018-07-28T23:08:23.853Z,99.90
2018-07-28T23:11:05.945Z,99.90
2018-07-28T23:13:47.237Z,99.90
2018-07-28T23:16:29.112Z,99.90
2018-07-28T23:19:10.846Z,99.90
2018-07-28T23:21:52.566Z,99.90
2018-07-28T23:24:34.130Z,99.90
2018-07-28T23:27:15.982Z,99.90
2018-07-28T23:29:57.685Z,99.90
2018-07-28T23:32:39.796Z,99.90
2018-07-28T23:35:20.958Z,99.90
2018-07-28T23:38:02.432Z,99.90
2018-07-28T23:40:44.448Z,99.90
2018-07-28T23:43:25.815Z,99.90
2018-07-28T23:46:07.400Z,99.90
2018-07-28T23:48:48.982Z,99.90
2018-07-28T23:51:30.402Z,99.90
2018-07-28T23:54:11.364Z,99.90
2018-07-28T23:56:52.682Z,99.90
2018-07-28T23:59:34.611Z,99.90
